Historyczne dane pomiarowe

Dodano dane terminowe – wersja testowa.

Dane z okresu 1951-2019

Wersja bazy: 1.34 [2019-03-16, lista zmian], aktualizacja planowana na 2019-04-15

Dane meteo z obszaru Polski uzyskane na podstawie danych udostępnionych przez Instytut Meteorologii i Gospodarki Wodnej – Państwowy Instytut Badawczy.

 

Wybierz Datę:    

       

TemperaturaWilgotnośćWiatrCiśnienieOpadyŚniegCzas trwania zjawisk
 Stacja t tx tn tng RH VA  wxwx mslp ppp RRR   cm mm wxwxwxwxwxwxwx
1983-08-14 15.6 18.1 10.2- 74.8- 0.3 4.0---- 0.0------------
1983-08-13 15.7 18.1 12.0- 69.8- 3.7 8.7---- 0.0------------
1983-08-12 16.6 22.1 12.2- 78.5- 7.7 6.0---- 0.1------------
1983-08-11 19.6 23.1 12.7- 81.3- 0.0 3.7---- 0.0------------
1983-08-10 19.8 23.5 15.1- 81.0- 0.0 3.7---- 0.0------------
1983-08-09 18.6 21.7 14.0- 83.5- 3.0 5.0---- 0.0------------
1983-08-08 18.4 20.3 16.1- 87.0- 1.7 6.0---- 0.0------------
1983-08-07 17.3 21.5 11.5- 86.8- 0.3 5.3---- 0.0------------
1983-08-06 16.2 20.5 10.8- 81.0- 3.3 4.0---- 0.0------------
1983-08-05 16.1 16.6 14.2- 88.0- 7.3 4.3---- 2.5------------
1983-08-04 14.6 16.0 13.3- 92.0- 8.0 12.0---- 11.5------------
1983-08-03 17.2 20.5 14.6- 84.5- 8.0 12.0---- 22.4------------
1983-08-02 19.7 28.4 16.4- 80.3- 6.3 3.3---- 0.0------------
1983-08-01 24.1 32.4 15.1- 50.5- 2.0 6.0---- 5.8------------
1983-07-31 17.7 24.7 9.8- 77.0- 0.3 2.7---- 0.0------------
1983-07-30 16.8 19.6 15.1- 72.5- 5.0 8.7---- 0.0------------
1983-07-29 16.6 19.4 13.0- 84.3- 7.0 6.0---- 1.2------------
1983-07-28 19.6 23.1 17.3- 78.3- 6.0 6.7---- 0.0------------
1983-07-27 21.3 30.0 16.1- 79.0- 5.3 4.7---- 0.0------------
1983-07-26 19.3 25.0 8.3- 69.3- 0.0 3.7---- 0.0------------
1983-07-25 19.1 22.6 12.2- 72.3- 0.0 4.3---- 0.0------------
1983-07-24 19.3 23.7 13.5- 73.5- 4.3 4.3---- 0.0------------
1983-07-23 19.0 21.8 13.2- 78.8- 0.0 4.7---- 0.0------------
1983-07-22 15.7 18.1 14.0- 89.5- 7.3 4.3---- 0.9------------
1983-07-21 14.6 18.6 9.3- 70.0- 5.3 7.7---- 0.0------------
1983-07-20 14.2 18.4 10.6- 68.8- 4.7 7.7---- 0.7------------
1983-07-19 19.8 25.6 18.2- 73.0- 6.0 5.7---- 1.7------------
1983-07-18 23.1 29.5 16.7- 64.8- 7.3 2.0---- 0.1------------
1983-07-17 18.4 23.1 10.7- 70.0- 0.0 4.3---- 0.0------------
1983-07-16 19.9 24.4 17.4- 76.3- 5.0 5.3---- 0.0------------
1983-07-15 19.2 25.8 11.5- 69.3- 2.7 3.3---- 0.0------------
1983-07-14 20.9 22.7 18.3- 75.8- 3.0 6.0---- 0.0------------
1983-07-13 20.3 24.4 16.5- 79.3- 6.7 7.3---- 0.0------------
1983-07-12 23.4 25.0 18.6- 73.3- 1.0 7.0---- 0.0------------
1983-07-11 21.4 26.0 14.0- 73.3- 6.0 5.3---- 0.0------------
1983-07-10 22.2 26.4 12.6- 65.8- 0.3 4.7---- 0.0------------
1983-07-09 19.7 24.3 13.8- 72.5- 0.3 4.7---- 0.0------------
1983-07-08 19.9 25.0 13.2- 64.0- 0.0 6.0---- 0.0------------
1983-07-07 23.3 28.5 18.1- 62.3- 0.0 6.3---- 0.0------------
1983-07-06 19.2 25.0 11.6- 75.3- 0.0 4.7---- 0.0------------
1983-07-05 17.9 22.1 11.2- 76.5- 0.0 3.3---- 0.0------------
1983-07-04 15.7 19.4 11.0- 73.8- 5.7 5.0---- 0.0------------
1983-07-03 17.6 21.3 14.8- 76.3- 4.3 5.0---- 0.0------------
1983-07-02 14.7 18.6 9.2- 74.8- 2.7 3.7---- 0.0------------
1983-07-01 16.0 18.1 14.3- 86.3- 7.7 3.0---- 0.0------------
1983-06-30 16.8 20.9 13.6- 82.8- 8.0 4.0---- 0.8------------
1983-06-29 13.9 18.3 8.7- 77.3- 5.0 4.7---- 0.4------------
1983-06-28 13.6 17.5 10.4- 73.8- 5.7 7.7---- 1.3------------
1983-06-27 16.4 19.6 12.3- 76.3- 5.3 3.3---- 1.8------------
1983-06-26 16.0 19.7 9.4- 68.3- 0.0 4.0---- 0.0------------
1983-06-25 18.3 23.2 13.4- 65.8- 2.7 4.7---- 0.2------------
1983-06-24 19.7 26.5 8.6- 57.5- 0.0 4.0---- 0.0------------
1983-06-23 16.6 23.4 9.0- 61.5- 0.0 5.0---- 0.0------------
1983-06-22 15.1 20.6 7.5- 62.8- 0.0 6.3---- 0.0------------
1983-06-21 18.0 22.9 11.8- 68.5- 0.7 6.0---- 0.0------------
1983-06-20 17.8 21.3 14.2- 69.8- 0.0 6.0---- 0.0------------
1983-06-19 17.4 19.7 15.0- 69.5- 0.0 6.7---- 0.0------------
1983-06-18 15.7 17.1 12.6- 72.5- 4.3 8.7---- 0.0------------
1983-06-17 13.6 16.6 7.7- 71.0- 5.3 5.0---- 0.0------------
1983-06-16 12.4 15.4 7.4- 73.8- 7.3 6.7---- 0.0------------
306.6 ms

 

Źródłem pochodzenia danych jest Instytut Meteorologii i Gospodarki Wodnej – Państwowy Instytut Badawczy. Dane Instytutu Meteorologii i Gospodarki Wodnej – Państwowego Instytutu Badawczego zostały przetworzone.

Dane źródłowe można odnaleźć na stronie https://dane.imgw.pl